sensor_id;sensor_type;location;lat;lon;timestamp;temperature;humidity
63802;DHT22;49949;43.060;25.624;2023-12-20T00:00:59;-1.90;99.90
63802;DHT22;49949;43.060;25.624;2023-12-20T00:03:24;-2.00;99.90
63802;DHT22;49949;43.060;25.624;2023-12-20T00:05:50;-1.90;99.90
63802;DHT22;49949;43.060;25.624;2023-12-20T00:08:16;-1.90;99.90
63802;DHT22;49949;43.060;25.624;2023-12-20T00:10:42;-1.90;99.90
63802;DHT22;49949;43.060;25.624;2023-12-20T00:13:08;-1.90;99.90
63802;DHT22;49949;43.060;25.624;2023-12-20T00:15:34;-1.90;99.90
63802;DHT22;49949;43.060;25.624;2023-12-20T00:18:00;-1.90;99.90
63802;DHT22;49949;43.060;25.624;2023-12-20T00:20:26;-2.00;99.90
63802;DHT22;49949;43.060;25.624;2023-12-20T00:22:54;-2.00;99.90
63802;DHT22;49949;43.060;25.624;2023-12-20T00:25:20;-2.00;99.90
63802;DHT22;49949;43.060;25.624;2023-12-20T00:27:45;-2.00;99.90
63802;DHT22;49949;43.060;25.624;2023-12-20T00:30:11;-2.10;99.90
63802;DHT22;49949;43.060;25.624;2023-12-20T00:32:37;-2.10;99.90
63802;DHT22;49949;43.060;25.624;2023-12-20T00:35:03;-2.10;99.90
63802;DHT22;49949;43.060;25.624;2023-12-20T00:37:29;-2.20;99.90
63802;DHT22;49949;43.060;25.624;2023-12-20T00:39:55;-2.20;99.90
63802;DHT22;49949;43.060;25.624;2023-12-20T00:42:20;-2.20;99.90
63802;DHT22;49949;43.060;25.624;2023-12-20T00:44:46;-2.20;99.90
63802;DHT22;49949;43.060;25.624;2023-12-20T00:47:11;-2.20;99.90
63802;DHT22;49949;43.060;25.624;2023-12-20T00:49:38;-2.20;99.90
63802;DHT22;49949;43.060;25.624;2023-12-20T00:52:04;-2.20;99.90
63802;DHT22;49949;43.060;25.624;2023-12-20T00:54:30;-2.20;99.90
63802;DHT22;49949;43.060;25.624;2023-12-20T00:56:56;-2.20;99.90
63802;DHT22;49949;43.060;25.624;2023-12-20T00:59:22;-2.10;99.90
63802;DHT22;49949;43.060;25.624;2023-12-20T01:01:47;-2.10;99.90
63802;DHT22;49949;43.060;25.624;2023-12-20T01:04:13;-2.10;99.90
63802;DHT22;49949;43.060;25.624;2023-12-20T01:06:39;-2.10;99.90
63802;DHT22;49949;43.060;25.624;2023-12-20T01:09:04;-2.10;99.90
63802;DHT22;49949;43.060;25.624;2023-12-20T01:11:30;-2.10;99.90
63802;DHT22;49949;43.060;25.624;2023-12-20T01:13:56;-2.10;99.90
63802;DHT22;49949;43.060;25.624;2023-12-20T01:16:21;-2.10;99.90
63802;DHT22;49949;43.060;25.624;2023-12-20T01:18:47;-2.10;99.90
63802;DHT22;49949;43.060;25.624;2023-12-20T01:21:13;-2.20;99.90
63802;DHT22;49949;43.060;25.624;2023-12-20T01:23:38;-2.20;99.90
63802;DHT22;49949;43.060;25.624;2023-12-20T01:26:04;-2.10;99.90
63802;DHT22;49949;43.060;25.624;2023-12-20T01:28:31;-2.10;99.90
63802;DHT22;49949;43.060;25.624;2023-12-20T01:30:57;-2.10;99.90
63802;DHT22;49949;43.060;25.624;2023-12-20T01:33:23;-2.00;99.90
63802;DHT22;49949;43.060;25.624;2023-12-20T01:35:49;-2.00;99.90
63802;DHT22;49949;43.060;25.624;2023-12-20T01:38:14;-2.00;99.90
63802;DHT22;49949;43.060;25.624;2023-12-20T01:40:40;-2.00;99.90
63802;DHT22;49949;43.060;25.624;2023-12-20T01:43:09;-2.10;99.90
63802;DHT22;49949;43.060;25.624;2023-12-20T01:45:35;-2.10;99.90
63802;DHT22;49949;43.060;25.624;2023-12-20T01:48:01;-2.10;99.90
63802;DHT22;49949;43.060;25.624;2023-12-20T01:50:28;-2.20;99.90
63802;DHT22;49949;43.060;25.624;2023-12-20T01:53:01;-2.20;99.90
63802;DHT22;49949;43.060;25.624;2023-12-20T01:55:29;-2.20;99.90
63802;DHT22;49949;43.060;25.624;2023-12-20T01:57:57;-2.20;99.90
63802;DHT22;49949;43.060;25.624;2023-12-20T02:00:24;-2.20;99.90
63802;DHT22;49949;43.060;25.624;2023-12-20T02:02:53;-2.20;99.90
63802;DHT22;49949;43.060;25.624;2023-12-20T02:05:19;-2.30;99.90
63802;DHT22;49949;43.060;25.624;2023-12-20T02:07:45;-2.20;99.90
63802;DHT22;49949;43.060;25.624;2023-12-20T02:10:11;-2.20;99.90
63802;DHT22;49949;43.060;25.624;2023-12-20T02:12:36;-2.20;99.90
63802;DHT22;49949;43.060;25.624;2023-12-20T02:15:02;-2.20;99.90
63802;DHT22;49949;43.060;25.624;2023-12-20T02:17:29;-2.20;99.90
63802;DHT22;49949;43.060;25.624;2023-12-20T02:19:55;-2.20;99.90
63802;DHT22;49949;43.060;25.624;2023-12-20T02:22:21;-2.20;99.90
63802;DHT22;49949;43.060;25.624;2023-12-20T02:24:46;-2.20;99.90
63802;DHT22;49949;43.060;25.624;2023-12-20T02:27:12;-2.20;99.90
63802;DHT22;49949;43.060;25.624;2023-12-20T02:29:38;-2.20;99.90
63802;DHT22;49949;43.060;25.624;2023-12-20T02:32:04;-2.20;99.90
63802;DHT22;49949;43.060;25.624;2023-12-20T02:34:29;-2.10;99.90
63802;DHT22;49949;43.060;25.624;2023-12-20T02:36:55;-2.10;99.90
63802;DHT22;49949;43.060;25.624;2023-12-20T02:39:21;-2.10;99.90
63802;DHT22;49949;43.060;25.624;2023-12-20T02:41:48;-2.10;99.90
63802;DHT22;49949;43.060;25.624;2023-12-20T02:44:13;-2.10;99.90
63802;DHT22;49949;43.060;25.624;2023-12-20T02:46:39;-2.10;99.90
63802;DHT22;49949;43.060;25.624;2023-12-20T02:49:06;-2.10;99.90
63802;DHT22;49949;43.060;25.624;2023-12-20T02:51:32;-2.10;99.90
63802;DHT22;49949;43.060;25.624;2023-12-20T02:53:57;-2.10;99.90
63802;DHT22;49949;43.060;25.624;2023-12-20T02:56:23;-2.20;99.90
63802;DHT22;49949;43.060;25.624;2023-12-20T02:58:49;-2.20;99.90
63802;DHT22;49949;43.060;25.624;2023-12-20T03:01:14;-2.30;99.90
63802;DHT22;49949;43.060;25.624;2023-12-20T03:03:40;-2.30;99.90
63802;DHT22;49949;43.060;25.624;2023-12-20T03:06:06;-2.30;99.90
63802;DHT22;49949;43.060;25.624;2023-12-20T03:08:31;-2.30;99.90
63802;DHT22;49949;43.060;25.624;2023-12-20T03:10:59;-2.30;99.90
63802;DHT22;49949;43.060;25.624;2023-12-20T03:13:25;-2.30;99.90
63802;DHT22;49949;43.060;25.624;2023-12-20T03:15:50;-2.30;99.90
63802;DHT22;49949;43.060;25.624;2023-12-20T03:18:16;-2.40;99.90
63802;DHT22;49949;43.060;25.624;2023-12-20T03:20:43;-2.40;99.90
63802;DHT22;49949;43.060;25.624;2023-12-20T03:23:09;-2.40;99.90
63802;DHT22;49949;43.060;25.624;2023-12-20T03:25:34;-2.40;99.90
63802;DHT22;49949;43.060;25.624;2023-12-20T03:28:00;-2.50;99.90
63802;DHT22;49949;43.060;25.624;2023-12-20T03:30:26;-2.50;99.90
63802;DHT22;49949;43.060;25.624;2023-12-20T03:32:51;-2.50;99.90
63802;DHT22;49949;43.060;25.624;2023-12-20T03:35:17;-2.50;99.90
63802;DHT22;49949;43.060;25.624;2023-12-20T03:37:43;-2.50;99.90
63802;DHT22;49949;43.060;25.624;2023-12-20T03:40:09;-2.50;99.90
63802;DHT22;49949;43.060;25.624;2023-12-20T03:42:35;-2.60;99.90
63802;DHT22;49949;43.060;25.624;2023-12-20T03:45:00;-2.60;99.90
63802;DHT22;49949;43.060;25.624;2023-12-20T03:47:26;-2.60;99.90
63802;DHT22;49949;43.060;25.624;2023-12-20T03:49:53;-2.60;99.90
63802;DHT22;49949;43.060;25.624;2023-12-20T03:52:18;-2.60;99.90
63802;DHT22;49949;43.060;25.624;2023-12-20T03:54:44;-2.60;99.90
63802;DHT22;49949;43.060;25.624;2023-12-20T03:57:10;-2.60;99.90
63802;DHT22;49949;43.060;25.624;2023-12-20T03:59:39;-2.60;99.90
63802;DHT22;49949;43.060;25.624;2023-12-20T04:02:04;-2.60;99.90
63802;DHT22;49949;43.060;25.624;2023-12-20T04:04:30;-2.70;99.90
63802;DHT22;49949;43.060;25.624;2023-12-20T04:06:56;-2.60;99.90
63802;DHT22;49949;43.060;25.624;2023-12-20T04:09:21;-2.70;99.90
63802;DHT22;49949;43.060;25.624;2023-12-20T04:11:47;-2.70;99.90
63802;DHT22;49949;43.060;25.624;2023-12-20T04:14:13;-2.70;99.90
63802;DHT22;49949;43.060;25.624;2023-12-20T04:16:38;-2.70;99.90
63802;DHT22;49949;43.060;25.624;2023-12-20T04:19:04;-2.80;99.90
63802;DHT22;49949;43.060;25.624;2023-12-20T04:21:30;-2.80;99.90
63802;DHT22;49949;43.060;25.624;2023-12-20T04:23:56;-2.80;99.90
63802;DHT22;49949;43.060;25.624;2023-12-20T04:26:22;-2.80;99.90
63802;DHT22;49949;43.060;25.624;2023-12-20T04:28:47;-2.90;99.90
63802;DHT22;49949;43.060;25.624;2023-12-20T04:31:13;-2.90;99.90
63802;DHT22;49949;43.060;25.624;2023-12-20T04:33:39;-2.90;99.90
63802;DHT22;49949;43.060;25.624;2023-12-20T04:36:05;-2.90;99.90
63802;DHT22;49949;43.060;25.624;2023-12-20T04:38:30;-2.80;99.90
63802;DHT22;49949;43.060;25.624;2023-12-20T04:40:56;-2.80;99.90
63802;DHT22;49949;43.060;25.624;2023-12-20T04:43:22;-2.80;99.90
63802;DHT22;49949;43.060;25.624;2023-12-20T04:45:48;-2.80;99.90
63802;DHT22;49949;43.060;25.624;2023-12-20T04:48:13;-2.90;99.90
63802;DHT22;49949;43.060;25.624;2023-12-20T04:50:39;-2.80;99.90
63802;DHT22;49949;43.060;25.624;2023-12-20T04:53:05;-2.90;99.90
63802;DHT22;49949;43.060;25.624;2023-12-20T04:55:30;-3.00;99.90
63802;DHT22;49949;43.060;25.624;2023-12-20T04:57:56;-3.10;99.90
63802;DHT22;49949;43.060;25.624;2023-12-20T05:00:22;-3.10;99.90
63802;DHT22;49949;43.060;25.624;2023-12-20T05:02:47;-3.10;99.90
63802;DHT22;49949;43.060;25.624;2023-12-20T05:05:13;-3.10;99.90
63802;DHT22;49949;43.060;25.624;2023-12-20T05:07:40;-3.10;99.90
63802;DHT22;49949;43.060;25.624;2023-12-20T05:10:06;-3.00;99.90
63802;DHT22;49949;43.060;25.624;2023-12-20T05:12:33;-3.10;99.90
63802;DHT22;49949;43.060;25.624;2023-12-20T05:14:59;-3.10;99.90
63802;DHT22;49949;43.060;25.624;2023-12-20T05:17:25;-3.00;99.90
63802;DHT22;49949;43.060;25.624;2023-12-20T05:19:51;-3.00;99.90
63802;DHT22;49949;43.060;25.624;2023-12-20T05:22:21;-3.10;99.90
63802;DHT22;49949;43.060;25.624;2023-12-20T05:24:47;-3.10;99.90
63802;DHT22;49949;43.060;25.624;2023-12-20T05:27:12;-3.00;99.90
63802;DHT22;49949;43.060;25.624;2023-12-20T05:29:38;-3.00;99.90
63802;DHT22;49949;43.060;25.624;2023-12-20T05:32:04;-3.00;99.90
63802;DHT22;49949;43.060;25.624;2023-12-20T05:34:30;-2.80;99.90
63802;DHT22;49949;43.060;25.624;2023-12-20T05:36:58;-2.90;99.90
63802;DHT22;49949;43.060;25.624;2023-12-20T05:39:23;-2.90;99.90
63802;DHT22;49949;43.060;25.624;2023-12-20T05:41:49;-2.80;99.90
63802;DHT22;49949;43.060;25.624;2023-12-20T05:44:15;-2.70;99.90
63802;DHT22;49949;43.060;25.624;2023-12-20T05:46:40;-2.70;99.90
63802;DHT22;49949;43.060;25.624;2023-12-20T05:49:06;-2.70;99.90
63802;DHT22;49949;43.060;25.624;2023-12-20T05:51:32;-2.60;99.90
63802;DHT22;49949;43.060;25.624;2023-12-20T05:53:58;-2.60;99.90
63802;DHT22;49949;43.060;25.624;2023-12-20T05:56:24;-2.50;99.90
63802;DHT22;49949;43.060;25.624;2023-12-20T05:58:50;-2.50;99.90
63802;DHT22;49949;43.060;25.624;2023-12-20T06:01:16;-2.40;99.90
63802;DHT22;49949;43.060;25.624;2023-12-20T06:03:44;-2.40;99.90
63802;DHT22;49949;43.060;25.624;2023-12-20T06:06:11;-2.30;99.90
63802;DHT22;49949;43.060;25.624;2023-12-20T06:08:38;-2.20;99.90
63802;DHT22;49949;43.060;25.624;2023-12-20T06:11:04;-2.10;99.90
63802;DHT22;49949;43.060;25.624;2023-12-20T06:13:31;-2.10;99.90
63802;DHT22;49949;43.060;25.624;2023-12-20T06:15:57;-2.00;99.90
63802;DHT22;49949;43.060;25.624;2023-12-20T06:18:23;-2.00;99.90
63802;DHT22;49949;43.060;25.624;2023-12-20T06:20:48;-1.90;99.90
63802;DHT22;49949;43.060;25.624;2023-12-20T06:23:14;-1.90;99.90
63802;DHT22;49949;43.060;25.624;2023-12-20T06:25:40;-1.80;99.90
63802;DHT22;49949;43.060;25.624;2023-12-20T06:28:06;-1.70;99.90
63802;DHT22;49949;43.060;25.624;2023-12-20T06:30:32;-1.70;99.90
63802;DHT22;49949;43.060;25.624;2023-12-20T06:32:58;-1.60;99.90
63802;DHT22;49949;43.060;25.624;2023-12-20T06:35:24;-1.50;99.90
63802;DHT22;49949;43.060;25.624;2023-12-20T06:37:50;-1.40;99.90
63802;DHT22;49949;43.060;25.624;2023-12-20T06:40:16;-1.30;99.90
63802;DHT22;49949;43.060;25.624;2023-12-20T06:42:41;-1.20;99.90
63802;DHT22;49949;43.060;25.624;2023-12-20T06:45:07;-1.10;99.90
63802;DHT22;49949;43.060;25.624;2023-12-20T06:47:33;-1.00;99.90
63802;DHT22;49949;43.060;25.624;2023-12-20T06:49:59;-0.90;99.90
63802;DHT22;49949;43.060;25.624;2023-12-20T06:52:25;-0.70;99.90
63802;DHT22;49949;43.060;25.624;2023-12-20T06:54:50;-0.60;99.90
63802;DHT22;49949;43.060;25.624;2023-12-20T06:57:16;-0.60;99.90
63802;DHT22;49949;43.060;25.624;2023-12-20T06:59:42;-0.60;99.90
63802;DHT22;49949;43.060;25.624;2023-12-20T07:02:08;-0.50;99.90
63802;DHT22;49949;43.060;25.624;2023-12-20T07:04:38;-0.40;99.90
63802;DHT22;49949;43.060;25.624;2023-12-20T07:07:04;-0.20;99.90
63802;DHT22;49949;43.060;25.624;2023-12-20T07:09:29;-0.10;99.90
63802;DHT22;49949;43.060;25.624;2023-12-20T07:11:55;0.00;99.90
63802;DHT22;49949;43.060;25.624;2023-12-20T07:14:21;0.00;99.90
63802;DHT22;49949;43.060;25.624;2023-12-20T07:16:47;0.10;99.90
63802;DHT22;49949;43.060;25.624;2023-12-20T07:19:12;0.20;99.90
63802;DHT22;49949;43.060;25.624;2023-12-20T07:21:38;0.30;99.90
63802;DHT22;49949;43.060;25.624;2023-12-20T07:24:04;0.40;99.90
63802;DHT22;49949;43.060;25.624;2023-12-20T07:26:30;0.50;99.90
63802;DHT22;49949;43.060;25.624;2023-12-20T07:28:55;0.40;99.90
63802;DHT22;49949;43.060;25.624;2023-12-20T07:31:21;0.50;99.90
63802;DHT22;49949;43.060;25.624;2023-12-20T07:33:47;0.60;99.90
63802;DHT22;49949;43.060;25.624;2023-12-20T07:36:13;0.70;99.90
63802;DHT22;49949;43.060;25.624;2023-12-20T07:38:38;0.80;99.90
63802;DHT22;49949;43.060;25.624;2023-12-20T07:41:04;0.80;99.90
63802;DHT22;49949;43.060;25.624;2023-12-20T07:43:30;1.00;99.90
63802;DHT22;49949;43.060;25.624;2023-12-20T07:45:57;1.10;99.90
63802;DHT22;49949;43.060;25.624;2023-12-20T07:48:23;1.20;99.90
63802;DHT22;49949;43.060;25.624;2023-12-20T07:50:48;1.30;99.90
63802;DHT22;49949;43.060;25.624;2023-12-20T07:53:14;1.40;99.90
63802;DHT22;49949;43.060;25.624;2023-12-20T07:55:40;1.40;99.90
63802;DHT22;49949;43.060;25.624;2023-12-20T07:58:05;1.50;99.90
63802;DHT22;49949;43.060;25.624;2023-12-20T08:00:31;1.70;99.90
63802;DHT22;49949;43.060;25.624;2023-12-20T08:02:57;1.80;99.90
63802;DHT22;49949;43.060;25.624;2023-12-20T08:05:22;1.90;99.90
63802;DHT22;49949;43.060;25.624;2023-12-20T08:07:48;2.00;99.90
63802;DHT22;49949;43.060;25.624;2023-12-20T08:10:14;2.10;99.90
63802;DHT22;49949;43.060;25.624;2023-12-20T08:12:39;2.10;99.90
63802;DHT22;49949;43.060;25.624;2023-12-20T08:15:06;2.20;99.90
63802;DHT22;49949;43.060;25.624;2023-12-20T08:17:31;2.30;99.90
63802;DHT22;49949;43.060;25.624;2023-12-20T08:19:57;2.40;99.90
63802;DHT22;49949;43.060;25.624;2023-12-20T08:22:23;2.50;99.90
63802;DHT22;49949;43.060;25.624;2023-12-20T08:24:49;2.60;99.90
63802;DHT22;49949;43.060;25.624;2023-12-20T08:27:14;2.60;99.90
63802;DHT22;49949;43.060;25.624;2023-12-20T08:29:40;2.60;99.90
63802;DHT22;49949;43.060;25.624;2023-12-20T08:32:06;2.70;99.90
63802;DHT22;49949;43.060;25.624;2023-12-20T08:34:32;2.80;99.90
63802;DHT22;49949;43.060;25.624;2023-12-20T08:36:57;2.70;99.90
63802;DHT22;49949;43.060;25.624;2023-12-20T08:39:23;2.70;99.90
63802;DHT22;49949;43.060;25.624;2023-12-20T08:41:49;2.70;99.90
63802;DHT22;49949;43.060;25.624;2023-12-20T08:44:14;2.60;99.90
63802;DHT22;49949;43.060;25.624;2023-12-20T08:46:40;2.40;99.90
63802;DHT22;49949;43.060;25.624;2023-12-20T08:49:06;2.50;99.90
63802;DHT22;49949;43.060;25.624;2023-12-20T08:51:32;2.60;99.90
63802;DHT22;49949;43.060;25.624;2023-12-20T08:53:59;2.80;99.90
63802;DHT22;49949;43.060;25.624;2023-12-20T08:56:24;3.00;99.90
63802;DHT22;49949;43.060;25.624;2023-12-20T08:58:50;3.20;99.90
63802;DHT22;49949;43.060;25.624;2023-12-20T09:01:16;3.60;99.90
63802;DHT22;49949;43.060;25.624;2023-12-20T09:03:41;4.30;99.90
63802;DHT22;49949;43.060;25.624;2023-12-20T09:06:07;4.40;99.90
63802;DHT22;49949;43.060;25.624;2023-12-20T09:08:33;4.70;99.90
63802;DHT22;49949;43.060;25.624;2023-12-20T09:10:59;4.70;99.90
63802;DHT22;49949;43.060;25.624;2023-12-20T09:13:26;4.90;99.90
63802;DHT22;49949;43.060;25.624;2023-12-20T09:15:55;5.50;99.90
63802;DHT22;49949;43.060;25.624;2023-12-20T09:18:21;6.60;99.90
63802;DHT22;49949;43.060;25.624;2023-12-20T09:20:47;7.40;99.90
63802;DHT22;49949;43.060;25.624;2023-12-20T09:23:12;7.70;99.90
63802;DHT22;49949;43.060;25.624;2023-12-20T09:25:38;7.90;99.90
63802;DHT22;49949;43.060;25.624;2023-12-20T09:28:04;8.20;99.90
63802;DHT22;49949;43.060;25.624;2023-12-20T09:30:30;8.80;99.90
63802;DHT22;49949;43.060;25.624;2023-12-20T09:32:57;9.20;99.90
63802;DHT22;49949;43.060;25.624;2023-12-20T09:35:23;9.30;99.90
63802;DHT22;49949;43.060;25.624;2023-12-20T09:37:49;9.60;99.90
63802;DHT22;49949;43.060;25.624;2023-12-20T09:40:20;10.10;99.90
63802;DHT22;49949;43.060;25.624;2023-12-20T09:43:03;10.60;99.90
63802;DHT22;49949;43.060;25.624;2023-12-20T09:45:30;10.10;99.90
63802;DHT22;49949;43.060;25.624;2023-12-20T09:47:57;9.40;99.90
63802;DHT22;49949;43.060;25.624;2023-12-20T09:50:23;8.90;99.90
63802;DHT22;49949;43.060;25.624;2023-12-20T09:52:53;8.70;99.90
63802;DHT22;49949;43.060;25.624;2023-12-20T09:55:20;8.50;99.90
63802;DHT22;49949;43.060;25.624;2023-12-20T09:57:49;8.40;99.90
63802;DHT22;49949;43.060;25.624;2023-12-20T10:00:15;8.20;99.90
63802;DHT22;49949;43.060;25.624;2023-12-20T10:03:00;8.10;99.90
63802;DHT22;49949;43.060;25.624;2023-12-20T10:05:31;8.00;99.90
63802;DHT22;49949;43.060;25.624;2023-12-20T10:07:58;8.00;99.90
63802;DHT22;49949;43.060;25.624;2023-12-20T10:10:25;8.10;99.90
63802;DHT22;49949;43.060;25.624;2023-12-20T10:13:10;8.10;99.90
63802;DHT22;49949;43.060;25.624;2023-12-20T10:15:36;8.00;99.90
63802;DHT22;49949;43.060;25.624;2023-12-20T10:18:03;8.10;99.90
63802;DHT22;49949;43.060;25.624;2023-12-20T10:20:29;8.10;99.90
63802;DHT22;49949;43.060;25.624;2023-12-20T10:22:56;8.20;99.90
63802;DHT22;49949;43.060;25.624;2023-12-20T10:25:22;8.10;99.90
63802;DHT22;49949;43.060;25.624;2023-12-20T10:27:50;8.20;99.90
63802;DHT22;49949;43.060;25.624;2023-12-20T10:30:16;8.30;99.90
63802;DHT22;49949;43.060;25.624;2023-12-20T10:32:42;8.30;99.90
63802;DHT22;49949;43.060;25.624;2023-12-20T10:35:08;8.40;99.90
63802;DHT22;49949;43.060;25.624;2023-12-20T10:37:36;8.40;99.90
63802;DHT22;49949;43.060;25.624;2023-12-20T10:40:03;8.50;99.90
63802;DHT22;49949;43.060;25.624;2023-12-20T10:42:31;8.50;99.90
63802;DHT22;49949;43.060;25.624;2023-12-20T10:44:59;8.50;99.90
63802;DHT22;49949;43.060;25.624;2023-12-20T10:47:25;8.50;99.90
63802;DHT22;49949;43.060;25.624;2023-12-20T10:49:52;8.60;99.90
63802;DHT22;49949;43.060;25.624;2023-12-20T10:52:19;8.70;99.90
63802;DHT22;49949;43.060;25.624;2023-12-20T10:54:48;8.80;99.90
63802;DHT22;49949;43.060;25.624;2023-12-20T10:57:14;8.90;99.90
63802;DHT22;49949;43.060;25.624;2023-12-20T10:59:43;8.90;99.90
63802;DHT22;49949;43.060;25.624;2023-12-20T11:02:11;9.00;99.90
63802;DHT22;49949;43.060;25.624;2023-12-20T11:04:55;9.00;99.90
63802;DHT22;49949;43.060;25.624;2023-12-20T11:07:29;9.00;99.90
63802;DHT22;49949;43.060;25.624;2023-12-20T11:10:00;9.10;99.90
63802;DHT22;49949;43.060;25.624;2023-12-20T11:15:26;9.20;99.90
63802;DHT22;49949;43.060;25.624;2023-12-20T11:17:56;9.20;99.90
63802;DHT22;49949;43.060;25.624;2023-12-20T11:20:23;9.30;99.90
63802;DHT22;49949;43.060;25.624;2023-12-20T11:22:53;9.40;99.90
63802;DHT22;49949;43.060;25.624;2023-12-20T11:25:19;9.40;99.90
63802;DHT22;49949;43.060;25.624;2023-12-20T11:28:08;9.50;99.90
63802;DHT22;49949;43.060;25.624;2023-12-20T11:30:48;9.60;99.90
63802;DHT22;49949;43.060;25.624;2023-12-20T11:33:15;9.60;99.90
63802;DHT22;49949;43.060;25.624;2023-12-20T11:35:42;9.60;99.90
63802;DHT22;49949;43.060;25.624;2023-12-20T11:38:11;9.50;99.90
63802;DHT22;49949;43.060;25.624;2023-12-20T11:40:37;9.40;99.90
63802;DHT22;49949;43.060;25.624;2023-12-20T11:43:03;9.50;99.90
63802;DHT22;49949;43.060;25.624;2023-12-20T11:45:30;9.50;99.90
63802;DHT22;49949;43.060;25.624;2023-12-20T11:47:57;9.60;99.90
63802;DHT22;49949;43.060;25.624;2023-12-20T11:50:23;9.70;99.90
63802;DHT22;49949;43.060;25.624;2023-12-20T11:52:51;9.90;99.90
63802;DHT22;49949;43.060;25.624;2023-12-20T11:55:17;10.00;99.90
63802;DHT22;49949;43.060;25.624;2023-12-20T11:57:43;10.00;99.90
63802;DHT22;49949;43.060;25.624;2023-12-20T12:00:10;10.00;99.90
63802;DHT22;49949;43.060;25.624;2023-12-20T12:02:36;9.90;99.90
63802;DHT22;49949;43.060;25.624;2023-12-20T12:05:02;9.80;99.90
63802;DHT22;49949;43.060;25.624;2023-12-20T12:07:30;9.90;99.90
63802;DHT22;49949;43.060;25.624;2023-12-20T12:09:56;9.90;99.90
63802;DHT22;49949;43.060;25.624;2023-12-20T12:12:21;9.80;99.90
63802;DHT22;49949;43.060;25.624;2023-12-20T12:14:48;9.80;99.90
63802;DHT22;49949;43.060;25.624;2023-12-20T12:17:15;9.70;99.90
63802;DHT22;49949;43.060;25.624;2023-12-20T12:19:41;9.60;99.90
63802;DHT22;49949;43.060;25.624;2023-12-20T12:22:09;9.60;99.90
63802;DHT22;49949;43.060;25.624;2023-12-20T12:24:39;9.60;99.90
63802;DHT22;49949;43.060;25.624;2023-12-20T12:27:08;9.50;99.90
63802;DHT22;49949;43.060;25.624;2023-12-20T12:29:35;9.50;99.90
63802;DHT22;49949;43.060;25.624;2023-12-20T12:32:01;9.50;99.90
63802;DHT22;49949;43.060;25.624;2023-12-20T12:34:30;9.70;99.90
63802;DHT22;49949;43.060;25.624;2023-12-20T12:36:57;9.90;99.90
63802;DHT22;49949;43.060;25.624;2023-12-20T12:39:23;10.10;99.90
63802;DHT22;49949;43.060;25.624;2023-12-20T12:41:53;10.30;99.90
63802;DHT22;49949;43.060;25.624;2023-12-20T12:44:19;10.10;99.90
63802;DHT22;49949;43.060;25.624;2023-12-20T12:46:48;10.00;99.90
63802;DHT22;49949;43.060;25.624;2023-12-20T12:49:16;9.90;99.90
63802;DHT22;49949;43.060;25.624;2023-12-20T12:51:42;9.90;99.90
63802;DHT22;49949;43.060;25.624;2023-12-20T12:54:09;9.70;99.90
63802;DHT22;49949;43.060;25.624;2023-12-20T12:56:38;9.80;99.90
63802;DHT22;49949;43.060;25.624;2023-12-20T12:59:04;9.80;99.90
63802;DHT22;49949;43.060;25.624;2023-12-20T13:01:31;9.80;99.90
63802;DHT22;49949;43.060;25.624;2023-12-20T13:03:56;9.60;99.90
63802;DHT22;49949;43.060;25.624;2023-12-20T13:06:22;9.30;99.90
63802;DHT22;49949;43.060;25.624;2023-12-20T13:08:48;9.10;99.90
63802;DHT22;49949;43.060;25.624;2023-12-20T13:11:14;9.00;99.90
63802;DHT22;49949;43.060;25.624;2023-12-20T13:13:40;8.70;99.90
63802;DHT22;49949;43.060;25.624;2023-12-20T13:16:06;8.40;99.90
63802;DHT22;49949;43.060;25.624;2023-12-20T13:18:32;8.40;99.90
63802;DHT22;49949;43.060;25.624;2023-12-20T13:20:57;8.20;99.90
63802;DHT22;49949;43.060;25.624;2023-12-20T13:23:23;8.20;99.90
63802;DHT22;49949;43.060;25.624;2023-12-20T13:25:49;8.10;99.90
63802;DHT22;49949;43.060;25.624;2023-12-20T13:28:15;7.90;99.90
63802;DHT22;49949;43.060;25.624;2023-12-20T13:30:40;7.80;99.90
63802;DHT22;49949;43.060;25.624;2023-12-20T13:33:06;7.70;99.90
63802;DHT22;49949;43.060;25.624;2023-12-20T13:35:33;7.60;99.90
63802;DHT22;49949;43.060;25.624;2023-12-20T13:38:00;7.50;99.90
63802;DHT22;49949;43.060;25.624;2023-12-20T13:40:26;7.50;99.90
63802;DHT22;49949;43.060;25.624;2023-12-20T13:42:52;7.40;99.90
63802;DHT22;49949;43.060;25.624;2023-12-20T13:45:18;7.40;99.90
63802;DHT22;49949;43.060;25.624;2023-12-20T13:47:43;7.30;99.90
63802;DHT22;49949;43.060;25.624;2023-12-20T13:50:09;7.30;99.90
63802;DHT22;49949;43.060;25.624;2023-12-20T13:52:35;7.30;99.90
63802;DHT22;49949;43.060;25.624;2023-12-20T13:55:01;7.20;99.90
63802;DHT22;49949;43.060;25.624;2023-12-20T13:57:27;7.20;99.90
63802;DHT22;49949;43.060;25.624;2023-12-20T13:59:55;7.30;99.90
63802;DHT22;49949;43.060;25.624;2023-12-20T14:02:23;7.20;99.90
63802;DHT22;49949;43.060;25.624;2023-12-20T14:04:48;7.10;99.90
63802;DHT22;49949;43.060;25.624;2023-12-20T14:07:14;7.10;99.90
63802;DHT22;49949;43.060;25.624;2023-12-20T14:09:40;7.30;99.90
63802;DHT22;49949;43.060;25.624;2023-12-20T14:12:11;7.20;99.90
63802;DHT22;49949;43.060;25.624;2023-12-20T14:14:37;7.10;99.90
63802;DHT22;49949;43.060;25.624;2023-12-20T14:17:03;6.90;99.90
63802;DHT22;49949;43.060;25.624;2023-12-20T14:19:29;6.80;99.90
63802;DHT22;49949;43.060;25.624;2023-12-20T14:21:55;6.70;99.90
63802;DHT22;49949;43.060;25.624;2023-12-20T14:24:20;6.60;99.90
63802;DHT22;49949;43.060;25.624;2023-12-20T14:26:46;6.50;99.90
63802;DHT22;49949;43.060;25.624;2023-12-20T14:29:12;6.40;99.90
63802;DHT22;49949;43.060;25.624;2023-12-20T14:31:37;6.50;99.90
63802;DHT22;49949;43.060;25.624;2023-12-20T14:34:04;6.40;99.90
63802;DHT22;49949;43.060;25.624;2023-12-20T14:36:30;6.50;99.90
63802;DHT22;49949;43.060;25.624;2023-12-20T14:38:59;6.50;99.90
63802;DHT22;49949;43.060;25.624;2023-12-20T14:41:25;6.50;99.90
63802;DHT22;49949;43.060;25.624;2023-12-20T14:43:53;6.50;99.90
63802;DHT22;49949;43.060;25.624;2023-12-20T14:46:19;6.50;99.90
63802;DHT22;49949;43.060;25.624;2023-12-20T14:48:45;6.40;99.90
63802;DHT22;49949;43.060;25.624;2023-12-20T14:51:11;6.30;99.90
63802;DHT22;49949;43.060;25.624;2023-12-20T14:53:38;6.30;99.90
63802;DHT22;49949;43.060;25.624;2023-12-20T14:56:04;6.40;99.90
63802;DHT22;49949;43.060;25.624;2023-12-20T14:58:31;6.40;99.90
63802;DHT22;49949;43.060;25.624;2023-12-20T15:00:57;6.40;99.90
63802;DHT22;49949;43.060;25.624;2023-12-20T15:03:23;6.40;99.90
63802;DHT22;49949;43.060;25.624;2023-12-20T15:05:49;6.40;99.90
63802;DHT22;49949;43.060;25.624;2023-12-20T15:08:15;6.20;99.90
63802;DHT22;49949;43.060;25.624;2023-12-20T15:10:41;6.00;99.90
63802;DHT22;49949;43.060;25.624;2023-12-20T15:13:07;5.90;99.90
63802;DHT22;49949;43.060;25.624;2023-12-20T15:15:33;5.80;99.90
63802;DHT22;49949;43.060;25.624;2023-12-20T15:17:59;5.60;99.90
63802;DHT22;49949;43.060;25.624;2023-12-20T15:20:25;5.50;99.90